الصفحة الرئيسية
METAR-TAF:

METAR-TAF

مطار :

مطار شيريميتييفو الدولي

موسكو-شيريميتييفو, روسيا

دائرة عرض: 55-58N, خط طول: 037-25E, ارتفاع: 190 متر

مراقبة الطقس الحالي

تاريخ ووقت الإصدار 31 دقيقة قبل الساعة 11:30UTC
ريح 17 عقدة من الغرب/الجنوب الغربي
درجة الحرارة 22°درجة مئوية
الرطوبة 41%
ضغط 1023 hPa
الرؤية 10 كم أو أكثر
الغيوم لا تقل 1500 م ولا وجود لمزنة ركامية السحاب الأسود

METAR: UUEE 271130Z 25009MPS CAVOK 22/08 Q1023 R24C/CLRD62 R24L/CLRD62 NOSIG

زمن: 15:01 (12:01 UTC)

توقعات

تاريخ ووقت الإصدار 1ساعة و 11 دقيقة قبل الساعة 10:50UTC
التوقعات صالحة من27 الساعة 12 UTC إلى 28 الساعة 12 UTC
ريح 16 عقدة من الغرب تتزايد حتى 25 عقدة
الرؤية 10 كم أو أكثر
الغيوم لا تقل 1500 م ولا وجود لمزنة ركامية السحاب الأسود
مؤقت
من 27 الساعة 15 UTC إلى 27 الساعة 24 UTC
غيوم متفرقة على ارتفاع 3000 قدم, مزنة ركامية.
زخات من الأمطار الخفيفة
أصبح
من 27 الساعة 20 UTC إلى 27 الساعة 22 UTC
ريح 12 عقدة من الشمال/الشمال الشرقي

TAF: UUEE 271050Z 2712/2812 27008G13MPS CAVOK TX23/2712Z TN09/2802Z TEMPO 2715/2724 -SHRA SCT030CB BECMG 2720/2722 02006MPS

أرصاد الطقس والتوقعات من أكثر من 4000 مطار (تقارير الطقس للمطار METAR والتنبؤ بالطقس بالمطارTAF).

المحطات المتاحة هي النقط الصفراء والحمراء على الخريطة.

حرك المؤشر فوق النقطة لمعرفة اسم المحطة.

ثم انقر لمعرفة أرصاد وتوقعات الطقس.

لتغيير الخارطة: اضغط على الأزرار الخضراء مع رمز الصليب الأسود للتكبير. على الزر الأخضر مع شرطة للتصغير، أو على الأسهم الخضراء للخرائط المجاورة.


METAR-TAF: